Time;durP1;ratioP1;P1;durP2;ratioP2;P2;SDS_P1;SDS_P2;PMS_P1;PMS_P2;Temp;Humidity;BMP_temperature;BMP_pressure;BME280_temperature;BME280_humidity;BME280_pressure;Samples;Min_cycle;Max_cycle;Signal;HPM_P1;HPM_P2
2022/09/23 00:01:13;;;;;;;0.68;0.60;;;22.70;58.20;;;;;;4993913;28;20046;-36
2022/09/23 00:03:44;;;;;;;0.50;0.50;;;22.60;58.10;;;;;;4991010;28;20136;-36
2022/09/23 00:06:11;;;;;;;0.55;0.38;;;22.60;58.30;;;;;;5001889;28;20045;-36
2022/09/23 00:08:37;;;;;;;0.60;0.50;;;22.60;58.30;;;;;;4999633;28;20093;-36
2022/09/23 00:11:04;;;;;;;0.40;0.40;;;22.60;58.30;;;;;;5002029;28;20081;-39
2022/09/23 00:13:30;;;;;;;0.55;0.55;;;22.50;58.30;;;;;;4990186;28;20041;-43
2022/09/23 00:15:56;;;;;;;0.38;0.32;;;22.60;58.30;;;;;;4998274;28;20468;-38
2022/09/23 00:18:21;;;;;;;1.38;0.95;;;22.60;58.40;;;;;;4998773;28;20069;-37
2022/09/23 00:20:47;;;;;;;0.40;0.40;;;22.60;58.40;;;;;;4997713;28;20586;-39
2022/09/23 00:23:12;;;;;;;0.40;0.40;;;22.60;58.40;;;;;;4999863;28;20491;-39
2022/09/23 00:25:38;;;;;;;0.50;0.50;;;22.50;58.50;;;;;;4992715;28;20041;-39
2022/09/23 00:28:03;;;;;;;0.52;0.50;;;22.50;58.60;;;;;;4994938;28;20549;-38
2022/09/23 00:30:29;;;;;;;0.70;0.50;;;22.40;58.80;;;;;;4997395;28;20508;-37
2022/09/23 00:32:55;;;;;;;0.77;0.50;;;22.50;58.80;;;;;;5000369;28;20038;-38
2022/09/23 00:35:21;;;;;;;0.55;0.52;;;22.50;58.80;;;;;;4994528;28;20030;-38
2022/09/23 00:37:46;;;;;;;0.45;0.45;;;22.40;58.70;;;;;;5001801;28;20100;-35
2022/09/23 00:40:12;;;;;;;0.35;0.30;;;22.50;58.80;;;;;;4991248;28;20268;-41
2022/09/23 00:42:45;;;;;;;0.43;0.43;;;22.40;58.80;;;;;;5003408;28;20104;-36
2022/09/23 00:45:10;;;;;;;0.93;0.40;;;22.40;58.80;;;;;;5002308;28;20045;-38
2022/09/23 00:48:00;;;;;;;0.50;0.50;;;22.40;58.70;;;;;;5003741;28;20779;-39
2022/09/23 00:50:30;;;;;;;0.52;0.52;;;22.40;58.90;;;;;;4985652;28;20053;-41
2022/09/23 00:52:57;;;;;;;0.40;0.40;;;22.40;58.90;;;;;;4997886;28;20041;-38
2022/09/23 00:55:47;;;;;;;0.30;0.30;;;22.40;59.00;;;;;;5012807;28;20046;-33
2022/09/23 00:58:14;;;;;;;0.38;0.30;;;22.40;58.90;;;;;;5000970;28;20037;-38
2022/09/23 01:00:41;;;;;;;0.50;0.40;;;22.40;58.90;;;;;;4998909;28;20464;-18
2022/09/23 01:03:06;;;;;;;0.45;0.45;;;22.40;58.90;;;;;;4999409;28;20038;-20
2022/09/23 01:05:32;;;;;;;1.60;0.52;;;22.30;59.00;;;;;;5000060;28;20047;-23
2022/09/23 01:07:58;;;;;;;0.63;0.43;;;22.40;59.00;;;;;;5001908;28;20030;-18
2022/09/23 01:10:23;;;;;;;0.50;0.50;;;22.40;59.10;;;;;;5000063;28;20069;-18
2022/09/23 01:13:14;;;;;;;0.43;0.43;;;22.40;59.00;;;;;;5017933;28;20034;-18
2022/09/23 01:15:52;;;;;;;0.63;0.63;;;22.40;59.00;;;;;;4996232;28;20056;-18
2022/09/23 01:18:42;;;;;;;0.30;0.30;;;22.30;59.10;;;;;;5002071;28;20104;-19
2022/09/23 01:21:27;;;;;;;1.08;0.50;;;22.30;59.00;;;;;;5016684;28;20400;-22
2022/09/23 01:24:01;;;;;;;0.43;0.40;;;22.30;59.00;;;;;;5000227;28;20050;-18
2022/09/23 01:26:51;;;;;;;0.40;0.40;;;22.30;59.00;;;;;;4997444;28;20585;-18
2022/09/23 01:29:47;;;;;;;0.30;0.30;;;22.30;59.00;;;;;;5016728;28;20050;-19
2022/09/23 01:32:35;;;;;;;0.40;0.40;;;22.30;59.10;;;;;;5001286;28;20141;-18
2022/09/23 01:35:12;;;;;;;1.05;0.30;;;22.20;59.10;;;;;;5002954;28;20172;-18
2022/09/23 01:38:10;;;;;;;0.30;0.30;;;22.30;59.10;;;;;;5010794;28;20523;-18
2022/09/23 01:40:47;;;;;;;0.35;0.35;;;22.30;59.00;;;;;;4984576;28;20057;-18
2022/09/23 01:43:24;;;;;;;0.45;0.43;;;22.30;58.90;;;;;;4992103;28;20117;-18
2022/09/23 01:45:53;;;;;;;0.28;0.28;;;22.30;59.60;;;;;;4968978;28;20140;-18
2022/09/23 01:48:49;;;;;;;0.70;0.45;;;22.30;59.20;;;;;;4973921;28;20670;-19
2022/09/23 01:51:19;;;;;;;3.08;0.45;;;22.30;59.00;;;;;;4986516;28;20415;-18
2022/09/23 01:53:48;;;;;;;0.40;0.40;;;22.30;59.00;;;;;;5012489;28;20065;-19
2022/09/23 01:56:21;;;;;;;0.60;0.60;;;22.30;59.20;;;;;;5014396;28;20069;-19
2022/09/23 01:59:23;;;;;;;0.40;0.40;;;22.30;59.20;;;;;;4992977;28;20058;-22
2022/09/23 02:02:19;;;;;;;0.38;0.32;;;22.30;59.20;;;;;;4998632;28;20451;-18
2022/09/23 02:04:57;;;;;;;0.43;0.40;;;22.20;59.00;;;;;;5028668;28;20232;-19
2022/09/23 02:07:37;;;;;;;0.40;0.40;;;22.20;59.00;;;;;;4997100;28;20041;-21
2022/09/23 02:10:13;;;;;;;0.28;0.28;;;22.30;58.90;;;;;;4997562;28;20113;-18
2022/09/23 02:12:39;;;;;;;0.43;0.43;;;22.20;58.90;;;;;;5014421;28;20041;-19
2022/09/23 02:15:10;;;;;;;0.30;0.30;;;22.30;59.00;;;;;;5001489;28;20565;-18
2022/09/23 02:17:54;;;;;;;0.28;0.20;;;22.30;58.90;;;;;;5025064;28;20108;-18
2022/09/23 02:20:27;;;;;;;0.60;0.40;;;22.30;58.90;;;;;;4997638;28;20042;-18
2022/09/23 02:23:06;;;;;;;0.35;0.35;;;22.20;58.80;;;;;;5002427;28;20050;-18
2022/09/23 02:25:51;;;;;;;1.08;0.40;;;22.20;58.80;;;;;;4994809;28;20038;-18
2022/09/23 02:28:21;;;;;;;0.30;0.30;;;22.20;58.90;;;;;;5001487;28;20146;-19
2022/09/23 02:31:25;;;;;;;0.30;0.30;;;22.20;58.90;;;;;;5014616;28;20531;-20
2022/09/23 02:33:59;;;;;;;0.30;0.30;;;22.20;59.00;;;;;;4964253;28;20150;-18
2022/09/23 02:36:31;;;;;;;0.40;0.40;;;22.20;59.00;;;;;;4986944;28;20046;-19
2022/09/23 02:38:58;;;;;;;0.40;0.40;;;22.20;59.00;;;;;;4957265;28;20169;-18
2022/09/23 02:41:36;;;;;;;0.25;0.25;;;22.20;59.00;;;;;;4987794;28;20035;-18
2022/09/23 02:44:08;;;;;;;0.30;0.30;;;22.20;58.90;;;;;;4958025;28;20081;-18
2022/09/23 02:46:33;;;;;;;0.85;0.50;;;22.20;59.40;;;;;;4969702;28;20097;-18
2022/09/23 02:49:03;;;;;;;0.30;0.30;;;22.20;58.80;;;;;;4970322;28;20054;-18
2022/09/23 02:51:33;;;;;;;0.30;0.28;;;22.20;58.80;;;;;;4974074;28;20133;-18
2022/09/23 02:53:58;;;;;;;0.30;0.30;;;22.20;58.90;;;;;;4954269;28;20061;-18
2022/09/23 02:56:24;;;;;;;0.20;0.20;;;22.20;58.90;;;;;;4957315;28;20046;-19
2022/09/23 02:58:53;;;;;;;0.28;0.28;;;22.20;59.50;;;;;;4961211;28;20575;-18
2022/09/23 03:01:37;;;;;;;0.30;0.30;;;22.20;58.90;;;;;;4971616;28;20031;-18
2022/09/23 03:04:13;;;;;;;0.40;0.40;;;22.20;58.90;;;;;;4949516;28;20528;-27
2022/09/23 03:06:48;;;;;;;0.30;0.30;;;22.10;58.90;;;;;;4966584;28;20047;-18
2022/09/23 03:09:58;;;;;;;0.30;0.30;;;22.10;58.80;;;;;;4972192;28;20059;-26
2022/09/23 03:12:40;;;;;;;0.30;0.30;;;22.10;58.90;;;;;;4970463;28;20081;-18
2022/09/23 03:15:47;;;;;;;0.45;0.40;;;22.10;58.90;;;;;;4941942;28;20570;-18
2022/09/23 03:18:30;;;;;;;0.40;0.38;;;22.20;58.90;;;;;;4972315;28;20050;-18
2022/09/23 03:20:57;;;;;;;0.32;0.32;;;22.10;58.90;;;;;;4960097;28;20519;-18
2022/09/23 03:23:26;;;;;;;0.30;0.30;;;22.10;59.50;;;;;;4943920;28;20539;-18
2022/09/23 03:25:53;;;;;;;0.30;0.30;;;22.10;59.00;;;;;;4973736;28;20066;-25
2022/09/23 03:28:19;;;;;;;0.43;0.40;;;22.10;59.00;;;;;;4949913;28;20042;-18
2022/09/23 03:30:44;;;;;;;0.73;0.38;;;22.10;58.80;;;;;;4954566;28;20590;-19
2022/09/23 03:33:11;;;;;;;0.30;0.30;;;22.10;58.80;;;;;;4957953;28;20058;-19
2022/09/23 03:36:50;;;;;;;0.30;0.30;;;22.10;58.70;;;;;;4960284;28;20117;-19
2022/09/23 03:38:26;;;;;;;0.30;0.30;;;22.10;58.70;;;;;;4953772;28;20043;-19
2022/09/23 03:40:53;;;;;;;0.20;0.20;;;22.10;58.80;;;;;;4970359;28;20052;-19
2022/09/23 03:43:18;;;;;;;0.40;0.40;;;22.10;58.80;;;;;;4963128;28;20093;-18
2022/09/23 03:45:44;;;;;;;0.35;0.35;;;22.10;58.80;;;;;;4975873;28;20070;-18
2022/09/23 03:48:10;;;;;;;0.30;0.30;;;22.10;58.80;;;;;;4998097;28;20051;-20
2022/09/23 03:50:36;;;;;;;0.40;0.40;;;22.10;58.70;;;;;;4994378;28;20030;-18
2022/09/23 03:53:01;;;;;;;0.40;0.40;;;22.20;58.70;;;;;;5001486;28;20042;-18
2022/09/23 03:55:27;;;;;;;0.30;0.30;;;22.10;58.70;;;;;;4992131;28;20504;-18
2022/09/23 03:57:54;;;;;;;0.30;0.30;;;22.10;58.80;;;;;;4994599;28;20057;-19
2022/09/23 04:00:19;;;;;;;0.52;0.50;;;22.10;58.70;;;;;;4995992;28;20479;-18
2022/09/23 04:02:45;;;;;;;0.95;0.43;;;22.10;58.80;;;;;;4996298;28;20668;-18
2022/09/23 04:05:11;;;;;;;1.33;0.35;;;22.10;58.80;;;;;;4999984;28;20035;-19
2022/09/23 04:07:37;;;;;;;0.30;0.30;;;22.00;58.90;;;;;;5000892;28;20146;-18
2022/09/23 04:10:03;;;;;;;0.60;0.60;;;22.10;58.80;;;;;;4995779;28;20114;-18
2022/09/23 04:12:29;;;;;;;0.30;0.30;;;22.10;58.90;;;;;;4998066;28;20038;-18
2022/09/23 04:14:55;;;;;;;0.20;0.20;;;22.10;59.40;;;;;;5001785;28;20401;-18
2022/09/23 04:17:20;;;;;;;0.75;0.30;;;22.10;59.00;;;;;;5005404;28;20038;-19
2022/09/23 04:19:46;;;;;;;0.43;0.43;;;22.00;59.00;;;;;;5004035;28;20053;-27
2022/09/23 04:22:11;;;;;;;0.40;0.40;;;22.00;59.70;;;;;;5006859;28;20503;-20
2022/09/23 04:24:37;;;;;;;0.40;0.40;;;22.00;58.90;;;;;;5002136;28;20061;-19
2022/09/23 04:27:02;;;;;;;0.25;0.25;;;22.00;59.10;;;;;;5001960;28;20042;-18
2022/09/23 04:29:28;;;;;;;0.30;0.30;;;22.10;59.10;;;;;;4999393;28;20129;-18
2022/09/23 04:31:54;;;;;;;0.30;0.30;;;22.00;59.10;;;;;;5005130;28;20672;-19
2022/09/23 04:34:20;;;;;;;0.30;0.30;;;22.00;59.10;;;;;;5002517;28;20100;-18
2022/09/23 04:36:46;;;;;;;0.20;0.20;;;22.00;59.10;;;;;;5002944;28;20045;-20
2022/09/23 04:39:12;;;;;;;0.20;0.20;;;22.00;59.00;;;;;;5001543;28;20040;-18
2022/09/23 04:41:37;;;;;;;1.45;0.20;;;22.00;59.10;;;;;;5002571;28;20415;-18
2022/09/23 04:44:03;;;;;;;0.28;0.28;;;22.00;59.20;;;;;;5006523;28;20038;-19
2022/09/23 04:46:29;;;;;;;0.30;0.20;;;21.90;59.10;;;;;;5002270;28;20077;-18
2022/09/23 04:48:55;;;;;;;0.85;0.30;;;22.00;59.20;;;;;;5000352;28;20372;-18
2022/09/23 04:51:22;;;;;;;2.28;0.30;;;22.00;59.90;;;;;;4999603;28;20046;-18
2022/09/23 04:53:48;;;;;;;0.30;0.30;;;22.00;59.20;;;;;;5003106;28;20080;-18
2022/09/23 04:56:16;;;;;;;0.40;0.30;;;22.00;59.10;;;;;;5003286;28;20052;-19
2022/09/23 04:58:42;;;;;;;0.30;0.30;;;22.00;59.20;;;;;;4997252;28;20038;-19
2022/09/23 05:01:10;;;;;;;0.20;0.20;;;22.00;59.20;;;;;;4998335;28;20105;-25
2022/09/23 05:03:36;;;;;;;0.32;0.30;;;22.00;59.10;;;;;;4997215;28;20041;-18
2022/09/23 05:06:01;;;;;;;0.80;0.30;;;22.00;59.40;;;;;;5001203;28;20057;-18
2022/09/23 05:08:27;;;;;;;0.20;0.20;;;22.00;59.40;;;;;;4998850;28;20100;-18
2022/09/23 05:10:57;;;;;;;0.30;0.30;;;22.00;59.80;;;;;;4307738;28;10000856;-18
2022/09/23 05:13:23;;;;;;;0.40;0.20;;;22.00;59.30;;;;;;4995492;28;20096;-19
2022/09/23 05:15:48;;;;;;;1.98;0.30;;;21.90;60.10;;;;;;4994623;28;21568;-19
2022/09/23 05:18:14;;;;;;;0.28;0.28;;;21.90;60.20;;;;;;4995209;28;20050;-19
2022/09/23 05:20:40;;;;;;;1.75;0.40;;;21.90;61.10;;;;;;4992481;28;20503;-19
2022/09/23 05:23:05;;;;;;;3.13;0.30;;;22.00;61.70;;;;;;5001074;28;20069;-19
2022/09/23 05:25:31;;;;;;;0.30;0.30;;;22.00;61.30;;;;;;4995279;28;20053;-18
2022/09/23 05:27:56;;;;;;;0.30;0.30;;;22.00;61.00;;;;;;4992987;28;20042;-18
2022/09/23 05:30:22;;;;;;;1.52;0.40;;;22.00;60.90;;;;;;4999501;28;20046;-18
2022/09/23 05:32:47;;;;;;;1.48;0.22;;;22.10;60.90;;;;;;4994843;28;20041;-19
2022/09/23 05:35:13;;;;;;;1.67;0.50;;;22.00;61.30;;;;;;4995958;28;20426;-18
2022/09/23 05:37:38;;;;;;;2.60;0.70;;;22.00;60.80;;;;;;4995278;28;20135;-23
2022/09/23 05:40:04;;;;;;;3.15;1.20;;;22.00;61.30;;;;;;4993231;28;20507;-18
2022/09/23 05:42:30;;;;;;;4.32;1.20;;;22.00;61.40;;;;;;4993638;28;20467;-19
2022/09/23 05:44:56;;;;;;;4.32;1.40;;;22.00;61.00;;;;;;4996237;28;20091;-19
2022/09/23 05:47:21;;;;;;;2.70;1.20;;;22.00;60.70;;;;;;4998209;28;20068;-19
2022/09/23 05:49:47;;;;;;;1.85;1.20;;;22.00;60.60;;;;;;4993033;28;20046;-18
2022/09/23 05:52:13;;;;;;;3.20;1.17;;;22.00;60.80;;;;;;4991109;28;20153;-20
2022/09/23 05:54:39;;;;;;;4.78;1.77;;;22.00;61.30;;;;;;4997366;28;20418;-19
2022/09/23 05:57:05;;;;;;;1.50;1.25;;;22.00;60.70;;;;;;4995498;28;20050;-18
2022/09/23 05:59:30;;;;;;;2.60;1.20;;;22.00;60.60;;;;;;5001100;28;20045;-19
2022/09/23 06:01:56;;;;;;;3.40;1.40;;;22.00;60.40;;;;;;5000365;28;20481;-18
2022/09/23 06:04:21;;;;;;;4.95;1.67;;;22.00;60.20;;;;;;4999043;28;20050;-18
2022/09/23 06:06:47;;;;;;;1.35;0.80;;;22.00;60.00;;;;;;5000371;28;20569;-20
2022/09/23 06:09:13;;;;;;;3.08;0.90;;;22.10;59.90;;;;;;5002172;28;20128;-19
2022/09/23 06:11:39;;;;;;;1.42;1.10;;;22.00;59.90;;;;;;4995555;28;20108;-19
2022/09/23 06:14:04;;;;;;;2.60;0.90;;;22.00;59.80;;;;;;4997954;28;20046;-19
2022/09/23 06:16:32;;;;;;;1.20;0.70;;;22.00;59.90;;;;;;4999317;28;20038;-20
2022/09/23 06:18:59;;;;;;;1.42;0.70;;;22.00;59.90;;;;;;4998197;28;20034;-18
2022/09/23 06:21:25;;;;;;;1.98;1.35;;;22.00;59.80;;;;;;5001409;28;20072;-18
2022/09/23 06:23:50;;;;;;;2.17;0.85;;;22.00;59.70;;;;;;4999745;28;20033;-20
2022/09/23 06:26:16;;;;;;;1.52;1.00;;;22.00;59.60;;;;;;5003888;28;20108;-19
2022/09/23 06:28:42;;;;;;;3.00;0.70;;;22.00;59.50;;;;;;4996725;28;20054;-18
2022/09/23 06:31:15;;;;;;;1.38;0.70;;;22.00;59.70;;;;;;5000215;28;20141;-19
2022/09/23 06:33:41;;;;;;;0.70;0.70;;;22.00;59.60;;;;;;5000153;28;20041;-19
2022/09/23 06:36:07;;;;;;;0.50;0.50;;;22.00;59.60;;;;;;5001663;28;20104;-18
2022/09/23 06:38:33;;;;;;;0.95;0.70;;;21.90;59.60;;;;;;4997728;28;20054;-19
2022/09/23 06:40:59;;;;;;;2.03;0.70;;;21.90;60.30;;;;;;5000697;28;20046;-18
2022/09/23 06:43:25;;;;;;;2.15;1.00;;;21.90;59.50;;;;;;4997722;28;20033;-18
2022/09/23 06:46:01;;;;;;;0.88;0.88;;;22.00;59.40;;;;;;4998402;28;20042;-19
2022/09/23 06:48:27;;;;;;;1.17;0.93;;;21.90;59.50;;;;;;5002085;28;20046;-18
2022/09/23 06:50:52;;;;;;;1.52;0.85;;;21.90;59.40;;;;;;5001682;28;20046;-19
2022/09/23 06:53:18;;;;;;;1.65;0.75;;;22.00;59.50;;;;;;4996705;28;20061;-19
2022/09/23 06:55:44;;;;;;;0.80;0.80;;;22.00;59.50;;;;;;4993529;28;20049;-19
2022/09/23 06:58:09;;;;;;;5.70;0.82;;;22.00;59.40;;;;;;5003735;28;20057;-23
2022/09/23 07:00:35;;;;;;;2.85;1.10;;;21.90;59.40;;;;;;5003389;28;20054;-18
2022/09/23 07:03:08;;;;;;;1.15;0.80;;;21.90;59.30;;;;;;5017086;28;30171;-19
2022/09/23 07:05:34;;;;;;;1.38;0.77;;;21.90;59.40;;;;;;5001403;28;20042;-18
2022/09/23 07:08:00;;;;;;;0.85;0.70;;;21.90;59.40;;;;;;5004016;28;20030;-18
2022/09/23 07:10:28;;;;;;;0.90;0.80;;;21.90;59.30;;;;;;5001958;28;21329;-18
2022/09/23 07:12:54;;;;;;;1.95;0.70;;;21.90;59.30;;;;;;5000481;28;20691;-18
2022/09/23 07:15:19;;;;;;;1.20;0.82;;;21.90;59.40;;;;;;5003638;28;20511;-19
2022/09/23 07:17:45;;;;;;;3.13;1.02;;;21.90;59.40;;;;;;5002143;28;20046;-19
2022/09/23 07:20:11;;;;;;;1.40;0.70;;;21.90;59.20;;;;;;5006440;28;20403;-19
2022/09/23 07:22:37;;;;;;;1.02;0.70;;;21.90;59.20;;;;;;5001755;28;20054;-20
2022/09/23 07:25:03;;;;;;;0.98;0.95;;;21.90;59.10;;;;;;5004239;28;20038;-18
2022/09/23 07:27:28;;;;;;;1.52;0.80;;;21.90;59.20;;;;;;5001337;28;20495;-19
2022/09/23 07:29:54;;;;;;;0.70;0.70;;;21.90;59.20;;;;;;5003686;28;20081;-20
2022/09/23 07:32:20;;;;;;;2.25;0.80;;;21.90;59.20;;;;;;5003682;28;20426;-19
2022/09/23 07:34:46;;;;;;;0.57;0.50;;;21.80;59.20;;;;;;5004040;28;20046;-19
2022/09/23 07:37:13;;;;;;;0.88;0.75;;;21.90;59.20;;;;;;5001748;28;20042;-18
2022/09/23 07:39:39;;;;;;;0.70;0.70;;;21.90;59.20;;;;;;5000944;28;20030;-18
2022/09/23 07:42:05;;;;;;;1.80;0.70;;;21.90;59.30;;;;;;5002622;28;20064;-19
2022/09/23 07:44:31;;;;;;;1.35;0.55;;;21.90;59.10;;;;;;5004189;28;20499;-20
2022/09/23 07:46:57;;;;;;;0.68;0.68;;;21.80;59.20;;;;;;5002798;28;20057;-18
2022/09/23 07:49:22;;;;;;;1.85;0.85;;;21.80;59.20;;;;;;4999138;28;20679;-18
2022/09/23 07:51:48;;;;;;;0.70;0.70;;;21.80;59.20;;;;;;5006644;28;20578;-19
2022/09/23 07:54:14;;;;;;;0.80;0.60;;;21.80;59.20;;;;;;5007656;28;20728;-24
2022/09/23 07:56:40;;;;;;;0.60;0.60;;;21.80;59.20;;;;;;5005230;28;20046;-18
2022/09/23 07:59:07;;;;;;;1.23;0.57;;;21.80;59.10;;;;;;5008377;28;20048;-19
2022/09/23 08:01:40;;;;;;;1.10;0.70;;;21.90;59.10;;;;;;5006918;28;20041;-24
2022/09/23 08:04:09;;;;;;;0.45;0.45;;;21.90;59.00;;;;;;5003483;28;20046;-18
2022/09/23 08:06:36;;;;;;;0.40;0.40;;;21.90;59.00;;;;;;5033800;28;20091;-18
2022/09/23 08:09:02;;;;;;;1.25;0.57;;;21.80;59.00;;;;;;5021155;28;20062;-18
2022/09/23 08:11:28;;;;;;;2.10;0.68;;;21.80;59.10;;;;;;5008663;28;20565;-18
2022/09/23 08:13:53;;;;;;;0.60;0.60;;;21.90;59.00;;;;;;5007388;28;20054;-18
2022/09/23 08:16:20;;;;;;;0.50;0.45;;;21.90;58.90;;;;;;5004671;28;20050;-19
2022/09/23 08:18:46;;;;;;;0.60;0.60;;;21.90;59.00;;;;;;5004858;28;20050;-18
2022/09/23 08:21:11;;;;;;;1.33;0.80;;;21.90;58.90;;;;;;5005039;28;20388;-19
2022/09/23 08:23:37;;;;;;;0.50;0.50;;;21.80;58.80;;;;;;5007056;28;20136;-19
2022/09/23 08:26:04;;;;;;;0.50;0.47;;;21.90;58.90;;;;;;5008560;28;20462;-20
2022/09/23 08:28:30;;;;;;;0.50;0.50;;;21.80;58.80;;;;;;5004644;28;20052;-19
2022/09/23 08:30:56;;;;;;;0.40;0.40;;;21.90;59.30;;;;;;5005559;28;20034;-18
2022/09/23 08:33:22;;;;;;;2.30;0.50;;;21.90;58.80;;;;;;5006564;28;20404;-19
2022/09/23 08:35:47;;;;;;;0.50;0.50;;;21.90;58.80;;;;;;5007096;28;20065;-18
2022/09/23 08:38:13;;;;;;;0.55;0.45;;;21.80;58.70;;;;;;5008116;28;20136;-19
2022/09/23 08:40:41;;;;;;;0.40;0.40;;;21.90;58.80;;;;;;5006978;28;21497;-25
2022/09/23 08:43:07;;;;;;;0.70;0.70;;;21.90;58.80;;;;;;5004683;28;20103;-19
2022/09/23 08:45:33;;;;;;;0.45;0.40;;;21.80;58.70;;;;;;5007806;28;20041;-28
2022/09/23 08:48:11;;;;;;;0.50;0.35;;;21.90;58.80;;;;;;5004987;28;20117;-18
2022/09/23 08:50:42;;;;;;;0.63;0.60;;;21.90;58.80;;;;;;5006064;28;20495;-18
2022/09/23 08:53:34;;;;;;;1.17;0.52;;;21.90;58.80;;;;;;5005631;28;20054;-19
2022/09/23 08:56:12;;;;;;;1.88;0.70;;;21.80;58.70;;;;;;5021843;28;20100;-19
2022/09/23 08:58:40;;;;;;;0.60;0.60;;;21.80;58.60;;;;;;5004329;28;20053;-18
2022/09/23 09:01:21;;;;;;;5.43;0.70;;;21.80;58.70;;;;;;5005500;28;20042;-19
2022/09/23 09:03:52;;;;;;;0.50;0.50;;;21.90;58.70;;;;;;5017312;28;20049;-19
2022/09/23 09:06:33;;;;;;;1.08;0.50;;;21.90;58.70;;;;;;5006081;28;20056;-18
2022/09/23 09:09:00;;;;;;;0.60;0.60;;;21.90;58.70;;;;;;5017037;28;20050;-18
2022/09/23 09:11:36;;;;;;;0.85;0.45;;;21.90;58.60;;;;;;5023067;28;20060;-18
2022/09/23 09:14:13;;;;;;;0.95;0.57;;;21.90;58.60;;;;;;5003558;28;20044;-18
2022/09/23 09:16:48;;;;;;;2.35;0.70;;;21.90;58.60;;;;;;5004227;28;20136;-19
2022/09/23 09:19:21;;;;;;;0.63;0.45;;;21.90;58.60;;;;;;5005325;28;20050;-28
2022/09/23 09:21:50;;;;;;;1.27;0.55;;;21.80;58.50;;;;;;5020287;28;20054;-18
2022/09/23 09:24:32;;;;;;;0.60;0.47;;;21.80;58.50;;;;;;5018758;28;20073;-24
2022/09/23 09:26:59;;;;;;;0.57;0.50;;;21.80;58.50;;;;;;5004411;28;20057;-19
2022/09/23 09:29:32;;;;;;;2.05;0.50;;;21.90;58.60;;;;;;5021472;28;20042;-19
2022/09/23 09:31:58;;;;;;;0.50;0.50;;;21.90;58.60;;;;;;5007823;28;20415;-18
2022/09/23 09:34:37;;;;;;;0.38;0.30;;;21.80;58.50;;;;;;5017000;28;20046;-18
2022/09/23 09:37:31;;;;;;;0.60;0.45;;;21.80;58.50;;;;;;5016182;28;20038;-18
2022/09/23 09:39:57;;;;;;;3.42;0.63;;;21.80;58.70;;;;;;5011924;28;20078;-19
2022/09/23 09:42:31;;;;;;;0.60;0.60;;;21.80;58.80;;;;;;5003296;28;20034;-18
2022/09/23 09:44:58;;;;;;;0.73;0.73;;;21.80;58.70;;;;;;5017445;28;20114;-18
2022/09/23 09:47:45;;;;;;;0.75;0.52;;;21.80;59.20;;;;;;5005107;28;20207;-18
2022/09/23 09:50:15;;;;;;;0.98;0.68;;;21.80;58.60;;;;;;5003702;28;20290;-19
2022/09/23 09:52:42;;;;;;;0.80;0.80;;;21.80;58.70;;;;;;5003486;28;20077;-18
2022/09/23 09:55:13;;;;;;;1.25;1.17;;;21.70;59.10;;;;;;5001607;28;20038;-21
2022/09/23 09:57:46;;;;;;;0.60;0.60;;;21.70;58.70;;;;;;5002905;28;20064;-18
2022/09/23 10:00:17;;;;;;;0.63;0.63;;;21.70;58.70;;;;;;5003292;28;20133;-24
2022/09/23 10:02:42;;;;;;;1.38;1.08;;;21.70;58.60;;;;;;4995482;28;20049;-18
2022/09/23 10:05:24;;;;;;;2.10;0.80;;;21.70;58.70;;;;;;4994077;28;20464;-23
2022/09/23 10:07:50;;;;;;;0.80;0.80;;;21.70;58.50;;;;;;4980147;28;20042;-19
2022/09/23 10:10:19;;;;;;;1.00;0.90;;;21.70;58.50;;;;;;4994636;28;20136;-19
2022/09/23 10:12:48;;;;;;;0.88;0.88;;;21.70;58.60;;;;;;4978787;28;20029;-19
2022/09/23 10:15:40;;;;;;;1.27;1.17;;;21.70;58.70;;;;;;4978066;28;20050;-24
2022/09/23 10:18:18;;;;;;;1.17;1.08;;;21.70;58.60;;;;;;4962198;28;20069;-19
2022/09/23 10:20:45;;;;;;;2.08;1.58;;;21.60;59.40;;;;;;4992666;28;20104;-19
2022/09/23 10:23:25;;;;;;;1.05;1.00;;;21.60;59.00;;;;;;4982292;28;20050;-19
2022/09/23 10:26:01;;;;;;;1.40;1.30;;;21.70;59.20;;;;;;4985370;28;20050;-18
2022/09/23 10:28:36;;;;;;;1.30;1.20;;;21.60;59.10;;;;;;4977261;28;20056;-19
2022/09/23 10:31:06;;;;;;;1.60;1.30;;;21.60;59.10;;;;;;4977567;28;20050;-19
2022/09/23 10:33:32;;;;;;;2.70;1.92;;;21.60;58.90;;;;;;4976702;28;20042;-19
2022/09/23 10:35:58;;;;;;;3.78;1.50;;;21.60;59.10;;;;;;4974073;28;20080;-18
2022/09/23 10:38:24;;;;;;;3.33;1.45;;;21.50;59.30;;;;;;4650225;28;10001401;-19
2022/09/23 10:46:37;;;;;;;1.50;1.40;;;21.60;59.50;;;;;;4975944;28;20628;-19
2022/09/23 10:49:08;;;;;;;2.63;1.35;;;21.60;59.50;;;;;;4977642;28;20049;-18
2022/09/23 10:52:06;;;;;;;2.20;1.25;;;21.50;59.60;;;;;;4979947;28;20042;-19
2022/09/23 10:54:40;;;;;;;1.60;1.50;;;21.50;59.80;;;;;;4602657;28;10000160;-19
2022/09/23 10:57:41;;;;;;;1.30;1.20;;;21.50;60.70;;;;;;4934375;28;20049;-21
2022/09/23 11:00:21;;;;;;;1.08;1.08;;;21.60;61.00;;;;;;4900061;28;20596;-20
2022/09/23 11:03:08;;;;;;;2.50;1.40;;;21.60;61.10;;;;;;4900179;28;20120;-20
2022/09/23 11:05:42;;;;;;;1.20;1.10;;;21.60;60.50;;;;;;4916229;28;20721;-20
2022/09/23 11:08:50;;;;;;;4.70;1.73;;;21.70;60.80;;;;;;4915825;28;20046;-23
2022/09/23 11:11:18;;;;;;;4.43;1.20;;;21.70;60.60;;;;;;4917807;28;20183;-23
2022/09/23 11:13:54;;;;;;;3.33;1.30;;;21.70;60.40;;;;;;4916818;28;20050;-22
2022/09/23 11:16:26;;;;;;;2.42;1.23;;;21.70;60.50;;;;;;4917990;28;20178;-20
2022/09/23 11:19:34;;;;;;;3.28;1.48;;;21.80;60.30;;;;;;4930151;28;20043;-20
2022/09/23 11:22:08;;;;;;;2.20;1.35;;;21.80;60.50;;;;;;4901694;28;20122;-20
2022/09/23 11:24:50;;;;;;;2.35;1.40;;;21.80;60.10;;;;;;4909592;28;20043;-19
2022/09/23 11:27:37;;;;;;;2.25;1.42;;;21.80;59.90;;;;;;4912295;28;23462;-19
2022/09/23 11:30:10;;;;;;;1.45;1.35;;;21.70;59.80;;;;;;4913834;28;20043;-28
2022/09/23 11:33:13;;;;;;;2.20;1.30;;;21.70;60.00;;;;;;4899262;28;20055;-19
2022/09/23 11:35:54;;;;;;;1.45;1.35;;;21.70;59.70;;;;;;4904268;28;20039;-19
2022/09/23 11:38:25;;;;;;;3.15;1.55;;;21.80;59.80;;;;;;4881326;29;20055;-19
2022/09/23 11:40:56;;;;;;;2.65;1.48;;;21.80;59.80;;;;;;4565225;28;10000348;-19
2022/09/23 11:43:23;;;;;;;1.70;1.30;;;21.80;60.30;;;;;;4883756;29;20075;-18
2022/09/23 11:46:08;;;;;;;1.70;1.20;;;21.80;60.60;;;;;;4878830;28;20047;-19
2022/09/23 11:48:42;;;;;;;1.80;1.00;;;21.80;61.40;;;;;;4913372;28;20058;-19
2022/09/23 11:51:12;;;;;;;2.33;1.45;;;21.70;60.30;;;;;;4897645;28;21275;-19
2022/09/23 11:53:56;;;;;;;2.45;1.15;;;21.80;60.20;;;;;;4943880;28;20057;-19
2022/09/23 11:56:27;;;;;;;1.42;1.33;;;21.80;60.10;;;;;;4958012;28;20423;-19
2022/09/23 11:59:17;;;;;;;1.60;1.50;;;21.70;59.90;;;;;;4957782;28;20069;-20
2022/09/23 12:01:56;;;;;;;3.20;1.45;;;21.80;59.90;;;;;;4953622;28;20601;-19
2022/09/23 12:04:27;;;;;;;2.35;1.60;;;21.80;59.90;;;;;;4967704;28;20520;-19
2022/09/23 12:06:59;;;;;;;3.25;1.83;;;21.80;59.90;;;;;;4979723;28;20140;-18
2022/09/23 12:09:30;;;;;;;2.67;2.50;;;21.80;60.90;;;;;;4966811;28;20058;-19
2022/09/23 12:12:07;;;;;;;2.38;2.25;;;21.70;60.40;;;;;;4982694;28;21162;-18
2022/09/23 12:14:40;;;;;;;4.10;3.00;;;21.70;61.10;;;;;;4969835;28;20057;-19
2022/09/23 12:17:09;;;;;;;3.40;2.30;;;21.70;60.20;;;;;;4983037;28;20057;-19
2022/09/23 12:19:44;;;;;;;3.75;3.28;;;21.60;60.30;;;;;;4979401;28;20694;-19
2022/09/23 12:22:18;;;;;;;3.00;2.70;;;21.60;60.30;;;;;;4976843;28;20050;-19
2022/09/23 12:24:56;;;;;;;2.78;2.35;;;21.50;60.20;;;;;;4629644;28;9999905;-19
2022/09/23 12:27:27;;;;;;;2.13;2.00;;;21.40;60.30;;;;;;4962336;28;20101;-19
2022/09/23 12:29:59;;;;;;;2.95;2.40;;;21.50;60.40;;;;;;5008674;28;20043;-19
2022/09/23 12:32:25;;;;;;;1.63;1.52;;;21.70;60.00;;;;;;4984852;28;20416;-25
2022/09/23 12:34:51;;;;;;;2.15;2.00;;;21.60;60.00;;;;;;4981299;28;20780;-20
2022/09/23 12:37:25;;;;;;;4.95;2.00;;;21.70;59.90;;;;;;4962793;28;21042;-22
2022/09/23 12:39:50;;;;;;;2.10;1.63;;;21.80;59.80;;;;;;4994413;28;21037;-19
2022/09/23 12:42:17;;;;;;;1.60;1.50;;;21.80;59.70;;;;;;4976209;28;20048;-19
2022/09/23 12:44:44;;;;;;;1.50;1.40;;;21.80;59.70;;;;;;4978381;28;20471;-24
2022/09/23 12:47:24;;;;;;;1.45;1.35;;;21.80;59.60;;;;;;4979684;28;20042;-24
2022/09/23 12:49:56;;;;;;;1.38;1.27;;;21.80;59.80;;;;;;4977181;28;20100;-19
2022/09/23 12:52:31;;;;;;;1.58;1.30;;;21.80;59.70;;;;;;4979906;28;20150;-20
2022/09/23 12:55:18;;;;;;;2.42;1.48;;;21.80;59.70;;;;;;4977373;28;20755;-19
2022/09/23 12:57:43;;;;;;;1.50;1.40;;;21.70;59.70;;;;;;4972852;28;20137;-19
2022/09/23 13:00:12;;;;;;;1.70;1.38;;;21.80;59.80;;;;;;4983221;28;20427;-16
2022/09/23 13:06:37;;;;;;;2.00;1.40;;;21.70;59.70;;;;;;4977799;28;20296;-15
2022/09/23 13:09:54;;;;;;;1.70;1.23;;;21.80;59.70;;;;;;4974455;28;20057;-15
2022/09/23 13:12:34;;;;;;;1.52;1.42;;;21.80;59.60;;;;;;4621226;28;10000382;-16
2022/09/23 13:15:05;;;;;;;1.35;1.23;;;21.80;59.50;;;;;;4630166;28;10000446;-16
2022/09/23 13:17:35;;;;;;;1.10;1.00;;;21.80;59.50;;;;;;4964141;28;20245;-16